sensor_id;sensor_type;location;lat;lon;timestamp;pressure;altitude;pressure_sealevel;temperature;humidity
20424;BME280;10371;49.042;8.002;2023-08-08T00:00:34;100000.63;;;13.54;100.00
20424;BME280;10371;49.042;8.002;2023-08-08T00:01:34;99998.00;;;13.54;100.00
20424;BME280;10371;49.042;8.002;2023-08-08T00:02:35;99998.97;;;13.53;100.00
20424;BME280;10371;49.042;8.002;2023-08-08T00:03:35;99998.97;;;13.53;100.00
20424;BME280;10371;49.042;8.002;2023-08-08T00:04:36;99990.16;;;13.54;100.00
20424;BME280;10371;49.042;8.002;2023-08-08T00:05:36;99996.91;;;13.56;100.00
20424;BME280;10371;49.042;8.002;2023-08-08T00:06:37;99996.25;;;13.54;100.00
20424;BME280;10371;49.042;8.002;2023-08-08T00:07:38;99998.97;;;13.53;100.00
20424;BME280;10371;49.042;8.002;2023-08-08T00:08:38;99999.81;;;13.53;100.00
20424;BME280;10371;49.042;8.002;2023-08-08T00:09:38;100004.22;;;13.53;100.00
20424;BME280;10371;49.042;8.002;2023-08-08T00:10:38;100003.53;;;13.51;100.00
20424;BME280;10371;49.042;8.002;2023-08-08T00:11:39;100003.41;;;13.52;100.00
20424;BME280;10371;49.042;8.002;2023-08-08T00:12:39;100000.91;;;13.51;100.00
20424;BME280;10371;49.042;8.002;2023-08-08T00:13:39;100006.13;;;13.51;100.00
20424;BME280;10371;49.042;8.002;2023-08-08T00:14:39;100002.16;;;13.47;100.00
20424;BME280;10371;49.042;8.002;2023-08-08T00:15:40;99993.78;;;13.43;100.00
20424;BME280;10371;49.042;8.002;2023-08-08T00:16:40;99991.44;;;13.40;100.00
20424;BME280;10371;49.042;8.002;2023-08-08T00:17:41;99993.47;;;13.36;100.00
20424;BME280;10371;49.042;8.002;2023-08-08T00:18:41;99987.72;;;13.33;100.00
20424;BME280;10371;49.042;8.002;2023-08-08T00:19:41;99988.25;;;13.27;100.00
20424;BME280;10371;49.042;8.002;2023-08-08T00:20:42;99987.94;;;13.20;100.00
20424;BME280;10371;49.042;8.002;2023-08-08T00:21:42;99982.97;;;13.17;100.00
20424;BME280;10371;49.042;8.002;2023-08-08T00:22:42;99983.25;;;13.14;100.00
20424;BME280;10371;49.042;8.002;2023-08-08T00:23:43;99986.84;;;13.13;100.00
20424;BME280;10371;49.042;8.002;2023-08-08T00:24:43;99980.91;;;13.11;100.00
20424;BME280;10371;49.042;8.002;2023-08-08T00:25:43;99982.00;;;13.08;100.00
20424;BME280;10371;49.042;8.002;2023-08-08T00:26:43;99988.22;;;13.07;100.00
20424;BME280;10371;49.042;8.002;2023-08-08T00:27:44;99993.84;;;13.03;100.00
20424;BME280;10371;49.042;8.002;2023-08-08T00:28:44;99987.91;;;13.01;100.00
20424;BME280;10371;49.042;8.002;2023-08-08T00:29:44;99987.91;;;13.01;100.00
20424;BME280;10371;49.042;8.002;2023-08-08T00:30:45;99990.13;;;12.95;100.00
20424;BME280;10371;49.042;8.002;2023-08-08T00:31:46;99985.84;;;12.94;100.00
20424;BME280;10371;49.042;8.002;2023-08-08T00:32:46;99980.19;;;12.89;100.00
20424;BME280;10371;49.042;8.002;2023-08-08T00:33:46;99979.38;;;12.89;100.00
20424;BME280;10371;49.042;8.002;2023-08-08T00:34:47;99982.13;;;12.87;100.00
20424;BME280;10371;49.042;8.002;2023-08-08T00:35:47;99982.41;;;12.84;100.00
20424;BME280;10371;49.042;8.002;2023-08-08T00:36:47;99974.81;;;12.81;100.00
20424;BME280;10371;49.042;8.002;2023-08-08T00:37:48;99976.31;;;12.84;100.00
20424;BME280;10371;49.042;8.002;2023-08-08T00:38:48;99982.63;;;12.81;100.00
20424;BME280;10371;49.042;8.002;2023-08-08T00:39:49;99979.22;;;12.81;100.00
20424;BME280;10371;49.042;8.002;2023-08-08T00:40:49;99981.00;;;12.80;100.00
20424;BME280;10371;49.042;8.002;2023-08-08T00:41:49;99984.97;;;12.74;100.00
20424;BME280;10371;49.042;8.002;2023-08-08T00:42:50;99983.34;;;12.73;100.00
20424;BME280;10371;49.042;8.002;2023-08-08T00:43:50;99984.16;;;12.74;100.00
20424;BME280;10371;49.042;8.002;2023-08-08T00:44:50;99978.66;;;12.77;100.00
20424;BME280;10371;49.042;8.002;2023-08-08T00:45:50;99984.84;;;12.76;100.00
20424;BME280;10371;49.042;8.002;2023-08-08T00:46:51;99979.88;;;12.73;100.00
20424;BME280;10371;49.042;8.002;2023-08-08T00:47:51;99983.47;;;12.72;100.00
20424;BME280;10371;49.042;8.002;2023-08-08T00:48:52;99978.50;;;12.69;100.00
20424;BME280;10371;49.042;8.002;2023-08-08T00:49:52;99976.97;;;12.66;100.00
20424;BME280;10371;49.042;8.002;2023-08-08T00:50:53;99979.03;;;12.63;100.00
20424;BME280;10371;49.042;8.002;2023-08-08T00:51:53;99972.28;;;12.60;100.00
20424;BME280;10371;49.042;8.002;2023-08-08T00:52:53;99977.63;;;12.59;100.00
20424;BME280;10371;49.042;8.002;2023-08-08T00:53:54;99971.59;;;12.58;100.00
20424;BME280;10371;49.042;8.002;2023-08-08T00:54:56;99967.72;;;12.52;100.00
20424;BME280;10371;49.042;8.002;2023-08-08T00:55:58;99967.16;;;12.49;100.00
20424;BME280;10371;49.042;8.002;2023-08-08T00:56:58;99963.59;;;12.50;100.00
20424;BME280;10371;49.042;8.002;2023-08-08T00:57:59;99961.13;;;12.48;100.00
20424;BME280;10371;49.042;8.002;2023-08-08T00:58:59;99960.53;;;12.45;100.00
20424;BME280;10371;49.042;8.002;2023-08-08T00:59:59;99957.38;;;12.41;100.00
20424;BME280;10371;49.042;8.002;2023-08-08T01:00:59;99963.56;;;12.40;100.00
20424;BME280;10371;49.042;8.002;2023-08-08T01:02:00;99965.47;;;12.38;100.00
20424;BME280;10371;49.042;8.002;2023-08-08T01:03:00;99982.13;;;12.37;100.00
20424;BME280;10371;49.042;8.002;2023-08-08T01:04:01;99972.88;;;12.33;100.00
20424;BME280;10371;49.042;8.002;2023-08-08T01:05:02;99973.16;;;12.30;100.00
20424;BME280;10371;49.042;8.002;2023-08-08T01:06:10;99979.34;;;12.29;100.00
20424;BME280;10371;49.042;8.002;2023-08-08T01:07:38;99975.31;;;12.25;100.00
20424;BME280;10371;49.042;8.002;2023-08-08T01:09:17;99976.28;;;12.24;100.00
20424;BME280;10371;49.042;8.002;2023-08-08T01:10:26;99970.25;;;12.23;100.00
20424;BME280;10371;49.042;8.002;2023-08-08T01:11:29;99972.84;;;12.23;100.00
20424;BME280;10371;49.042;8.002;2023-08-08T01:12:31;99967.47;;;12.25;100.00
20424;BME280;10371;49.042;8.002;2023-08-08T01:13:32;99967.47;;;12.25;100.00
20424;BME280;10371;49.042;8.002;2023-08-08T01:14:34;99975.06;;;12.28;100.00
20424;BME280;10371;49.042;8.002;2023-08-08T01:15:36;99970.78;;;12.27;100.00
20424;BME280;10371;49.042;8.002;2023-08-08T01:16:37;99971.78;;;12.26;100.00
20424;BME280;10371;49.042;8.002;2023-08-08T01:17:38;99973.41;;;12.27;100.00
20424;BME280;10371;49.042;8.002;2023-08-08T01:18:40;99964.75;;;12.26;100.00
20424;BME280;10371;49.042;8.002;2023-08-08T01:19:41;99972.69;;;12.25;100.00
20424;BME280;10371;49.042;8.002;2023-08-08T01:20:42;99970.66;;;12.28;100.00
20424;BME280;10371;49.042;8.002;2023-08-08T01:21:45;99965.44;;;12.28;100.00
20424;BME280;10371;49.042;8.002;2023-08-08T01:23:01;99969.97;;;12.26;100.00
20424;BME280;10371;49.042;8.002;2023-08-08T01:24:18;99969.00;;;12.27;100.00
20424;BME280;10371;49.042;8.002;2023-08-08T01:25:19;99970.09;;;12.25;100.00
20424;BME280;10371;49.042;8.002;2023-08-08T01:26:21;99968.19;;;12.27;100.00
20424;BME280;10371;49.042;8.002;2023-08-08T01:27:22;99973.41;;;12.27;100.00
20424;BME280;10371;49.042;8.002;2023-08-08T01:28:23;99969.00;;;12.27;100.00
20424;BME280;10371;49.042;8.002;2023-08-08T01:29:23;99973.97;;;12.30;100.00
20424;BME280;10371;49.042;8.002;2023-08-08T01:30:24;99966.84;;;12.33;100.00
20424;BME280;10371;49.042;8.002;2023-08-08T01:31:24;99978.25;;;12.32;100.00
20424;BME280;10371;49.042;8.002;2023-08-08T01:32:24;99975.50;;;12.33;100.00
20424;BME280;10371;49.042;8.002;2023-08-08T01:33:24;99977.28;;;12.33;100.00
20424;BME280;10371;49.042;8.002;2023-08-08T01:34:25;99972.75;;;12.35;100.00
20424;BME280;10371;49.042;8.002;2023-08-08T01:35:29;99980.72;;;12.33;100.00
20424;BME280;10371;49.042;8.002;2023-08-08T01:37:55;99971.78;;;12.36;100.00
20424;BME280;10371;49.042;8.002;2023-08-08T01:39:00;99977.84;;;12.36;100.00
20424;BME280;10371;49.042;8.002;2023-08-08T01:40:05;99970.16;;;12.35;100.00
20424;BME280;10371;49.042;8.002;2023-08-08T01:41:07;99981.25;;;12.37;100.00
20424;BME280;10371;49.042;8.002;2023-08-08T01:42:07;99970.72;;;12.38;100.00
20424;BME280;10371;49.042;8.002;2023-08-08T01:43:08;99969.06;;;12.37;100.00
20424;BME280;10371;49.042;8.002;2023-08-08T01:44:09;99975.09;;;12.38;100.00
20424;BME280;10371;49.042;8.002;2023-08-08T01:45:10;99971.53;;;12.39;100.00
20424;BME280;10371;49.042;8.002;2023-08-08T01:46:12;99971.53;;;12.39;100.00
20424;BME280;10371;49.042;8.002;2023-08-08T01:47:12;99969.75;;;12.39;100.00
20424;BME280;10371;49.042;8.002;2023-08-08T01:48:12;99976.63;;;12.40;100.00
20424;BME280;10371;49.042;8.002;2023-08-08T01:49:13;99975.66;;;12.41;100.00
20424;BME280;10371;49.042;8.002;2023-08-08T01:50:13;99975.66;;;12.41;100.00
20424;BME280;10371;49.042;8.002;2023-08-08T01:51:13;99975.53;;;12.43;100.00
20424;BME280;10371;49.042;8.002;2023-08-08T01:52:14;99978.97;;;12.43;100.00
20424;BME280;10371;49.042;8.002;2023-08-08T01:53:14;99985.84;;;12.44;100.00
20424;BME280;10371;49.042;8.002;2023-08-08T01:54:14;99990.25;;;12.44;100.00
20424;BME280;10371;49.042;8.002;2023-08-08T01:55:14;99973.75;;;12.43;100.00
20424;BME280;10371;49.042;8.002;2023-08-08T01:56:15;99978.72;;;12.46;100.00
20424;BME280;10371;49.042;8.002;2023-08-08T01:57:15;99974.44;;;12.45;100.00
20424;BME280;10371;49.042;8.002;2023-08-08T01:58:15;99975.41;;;12.44;100.00
20424;BME280;10371;49.042;8.002;2023-08-08T01:59:16;99971.84;;;12.45;100.00
20424;BME280;10371;49.042;8.002;2023-08-08T02:00:16;99963.31;;;12.43;100.00
20424;BME280;10371;49.042;8.002;2023-08-08T02:01:16;99967.56;;;12.44;100.00
20424;BME280;10371;49.042;8.002;2023-08-08T02:02:16;99968.53;;;12.43;100.00
20424;BME280;10371;49.042;8.002;2023-08-08T02:03:17;99969.34;;;12.44;100.00
20424;BME280;10371;49.042;8.002;2023-08-08T02:04:18;99971.84;;;12.45;100.00
20424;BME280;10371;49.042;8.002;2023-08-08T02:05:18;99964.13;;;12.44;100.00
20424;BME280;10371;49.042;8.002;2023-08-08T02:06:18;99965.09;;;12.43;100.00
20424;BME280;10371;49.042;8.002;2023-08-08T02:07:19;99967.56;;;12.44;100.00
20424;BME280;10371;49.042;8.002;2023-08-08T02:08:19;99963.16;;;12.45;100.00
20424;BME280;10371;49.042;8.002;2023-08-08T02:09:19;99959.72;;;12.44;100.00
20424;BME280;10371;49.042;8.002;2023-08-08T02:10:19;99960.44;;;12.46;100.00
20424;BME280;10371;49.042;8.002;2023-08-08T02:11:20;99963.03;;;12.46;100.00
20424;BME280;10371;49.042;8.002;2023-08-08T02:12:21;99959.47;;;12.47;100.00
20424;BME280;10371;49.042;8.002;2023-08-08T02:13:22;99958.78;;;12.45;100.00
20424;BME280;10371;49.042;8.002;2023-08-08T02:14:22;99965.66;;;12.46;100.00
20424;BME280;10371;49.042;8.002;2023-08-08T02:15:22;99967.28;;;12.47;100.00
20424;BME280;10371;49.042;8.002;2023-08-08T02:16:23;99962.06;;;12.47;100.00
20424;BME280;10371;49.042;8.002;2023-08-08T02:17:24;99962.22;;;12.46;100.00
20424;BME280;10371;49.042;8.002;2023-08-08T02:18:25;99959.59;;;12.46;100.00
20424;BME280;10371;49.042;8.002;2023-08-08T02:19:25;99963.59;;;12.50;100.00
20424;BME280;10371;49.042;8.002;2023-08-08T02:20:26;99961.69;;;12.52;100.00
20424;BME280;10371;49.042;8.002;2023-08-08T02:21:26;99960.03;;;12.51;100.00
20424;BME280;10371;49.042;8.002;2023-08-08T02:22:26;99959.19;;;12.50;100.00
20424;BME280;10371;49.042;8.002;2023-08-08T02:23:27;99962.06;;;12.47;100.00
20424;BME280;10371;49.042;8.002;2023-08-08T02:24:27;99965.00;;;12.54;100.00
20424;BME280;10371;49.042;8.002;2023-08-08T02:25:27;99960.44;;;12.56;100.00
20424;BME280;10371;49.042;8.002;2023-08-08T02:26:27;99961.53;;;12.53;100.00
20424;BME280;10371;49.042;8.002;2023-08-08T02:27:28;99967.72;;;12.52;100.00
20424;BME280;10371;49.042;8.002;2023-08-08T02:28:28;99965.94;;;12.53;100.00
20424;BME280;10371;49.042;8.002;2023-08-08T02:29:28;99961.41;;;12.55;100.00
20424;BME280;10371;49.042;8.002;2023-08-08T02:30:29;99963.31;;;12.53;100.00
20424;BME280;10371;49.042;8.002;2023-08-08T02:31:29;99963.75;;;12.48;100.00
20424;BME280;10371;49.042;8.002;2023-08-08T02:32:29;99962.78;;;12.49;100.00
20424;BME280;10371;49.042;8.002;2023-08-08T02:33:29;99959.34;;;12.49;100.00
20424;BME280;10371;49.042;8.002;2023-08-08T02:34:30;99956.84;;;12.47;100.00
20424;BME280;10371;49.042;8.002;2023-08-08T02:35:30;99966.34;;;12.48;100.00
20424;BME280;10371;49.042;8.002;2023-08-08T02:36:30;99960.28;;;12.48;100.00
20424;BME280;10371;49.042;8.002;2023-08-08T02:37:31;99965.66;;;12.46;100.00
20424;BME280;10371;49.042;8.002;2023-08-08T02:38:31;99964.00;;;12.45;100.00
20424;BME280;10371;49.042;8.002;2023-08-08T02:39:31;99965.78;;;12.45;100.00
20424;BME280;10371;49.042;8.002;2023-08-08T02:40:31;99963.31;;;12.43;100.00
20424;BME280;10371;49.042;8.002;2023-08-08T02:41:33;99964.13;;;12.44;100.00
20424;BME280;10371;49.042;8.002;2023-08-08T02:42:33;99959.72;;;12.44;100.00
20424;BME280;10371;49.042;8.002;2023-08-08T02:43:34;99964.94;;;12.44;100.00
20424;BME280;10371;49.042;8.002;2023-08-08T02:44:34;99964.13;;;12.44;100.00
20424;BME280;10371;49.042;8.002;2023-08-08T02:45:34;99960.00;;;12.41;100.00
20424;BME280;10371;49.042;8.002;2023-08-08T02:46:34;99965.47;;;12.38;100.00
20424;BME280;10371;49.042;8.002;2023-08-08T02:47:36;99964.78;;;12.36;100.00
20424;BME280;10371;49.042;8.002;2023-08-08T02:48:37;99964.78;;;12.36;100.00
20424;BME280;10371;49.042;8.002;2023-08-08T02:49:37;99963.00;;;12.37;100.00
20424;BME280;10371;49.042;8.002;2023-08-08T02:50:37;99956.94;;;12.36;100.00
20424;BME280;10371;49.042;8.002;2023-08-08T02:51:37;99962.44;;;12.33;100.00
20424;BME280;10371;49.042;8.002;2023-08-08T02:52:39;99959.81;;;12.33;100.00
20424;BME280;10371;49.042;8.002;2023-08-08T02:53:39;99960.78;;;12.32;100.00
20424;BME280;10371;49.042;8.002;2023-08-08T02:54:39;99963.53;;;12.30;100.00
20424;BME280;10371;49.042;8.002;2023-08-08T02:55:39;99972.06;;;12.33;100.00
20424;BME280;10371;49.042;8.002;2023-08-08T02:56:40;99961.06;;;12.29;100.00
20424;BME280;10371;49.042;8.002;2023-08-08T02:57:40;99977.66;;;12.28;100.00
20424;BME280;10371;49.042;8.002;2023-08-08T02:58:40;99975.31;;;12.25;100.00
20424;BME280;10371;49.042;8.002;2023-08-08T02:59:40;99976.28;;;12.24;100.00
20424;BME280;10371;49.042;8.002;2023-08-08T03:00:41;99982.44;;;12.23;100.00
20424;BME280;10371;49.042;8.002;2023-08-08T03:01:41;99979.16;;;12.21;100.00
20424;BME280;10371;49.042;8.002;2023-08-08T03:02:42;99969.81;;;12.18;100.00
20424;BME280;10371;49.042;8.002;2023-08-08T03:03:42;99969.25;;;12.15;100.00
20424;BME280;10371;49.042;8.002;2023-08-08T03:04:42;99973.50;;;12.16;100.00
20424;BME280;10371;49.042;8.002;2023-08-08T03:05:44;99974.47;;;12.15;100.00
20424;BME280;10371;49.042;8.002;2023-08-08T03:06:44;99969.47;;;12.12;100.00
20424;BME280;10371;49.042;8.002;2023-08-08T03:07:45;99976.22;;;12.14;100.00
20424;BME280;10371;49.042;8.002;2023-08-08T03:08:45;99970.34;;;12.12;100.00
20424;BME280;10371;49.042;8.002;2023-08-08T03:09:45;99967.00;;;12.10;100.00
20424;BME280;10371;49.042;8.002;2023-08-08T03:10:45;99964.66;;;12.07;100.00
20424;BME280;10371;49.042;8.002;2023-08-08T03:11:46;99964.53;;;12.08;100.00
20424;BME280;10371;49.042;8.002;2023-08-08T03:12:46;99967.28;;;12.07;100.00
20424;BME280;10371;49.042;8.002;2023-08-08T03:13:46;99965.50;;;12.07;100.00
20424;BME280;10371;49.042;8.002;2023-08-08T03:14:47;99962.19;;;12.05;100.00
20424;BME280;10371;49.042;8.002;2023-08-08T03:15:47;99962.06;;;12.07;100.00
20424;BME280;10371;49.042;8.002;2023-08-08T03:16:47;99958.84;;;12.03;100.00
20424;BME280;10371;49.042;8.002;2023-08-08T03:17:47;99959.81;;;12.02;100.00
20424;BME280;10371;49.042;8.002;2023-08-08T03:18:48;99960.09;;;11.99;100.00
20424;BME280;10371;49.042;8.002;2023-08-08T03:19:48;99948.13;;;11.97;100.00
20424;BME280;10371;49.042;8.002;2023-08-08T03:20:48;99966.94;;;12.00;100.00
20424;BME280;10371;49.042;8.002;2023-08-08T03:21:49;99965.56;;;11.96;100.00
20424;BME280;10371;49.042;8.002;2023-08-08T03:22:49;99963.94;;;11.95;100.00
20424;BME280;10371;49.042;8.002;2023-08-08T03:23:49;99960.34;;;11.96;100.00
20424;BME280;10371;49.042;8.002;2023-08-08T03:24:49;99961.31;;;11.95;100.00
20424;BME280;10371;49.042;8.002;2023-08-08T03:25:50;99968.28;;;11.95;100.00
20424;BME280;10371;49.042;8.002;2023-08-08T03:26:50;99956.22;;;11.94;100.00
20424;BME280;10371;49.042;8.002;2023-08-08T03:27:50;99957.28;;;11.91;100.00
20424;BME280;10371;49.042;8.002;2023-08-08T03:28:51;99959.91;;;11.91;100.00
20424;BME280;10371;49.042;8.002;2023-08-08T03:29:53;99960.72;;;11.92;100.00
20424;BME280;10371;49.042;8.002;2023-08-08T03:30:53;99954.94;;;11.88;100.00
20424;BME280;10371;49.042;8.002;2023-08-08T03:31:53;99959.34;;;11.88;100.00
20424;BME280;10371;49.042;8.002;2023-08-08T03:32:54;99960.16;;;11.88;100.00
20424;BME280;10371;49.042;8.002;2023-08-08T03:33:54;99960.88;;;11.90;100.00
20424;BME280;10371;49.042;8.002;2023-08-08T03:34:54;99964.41;;;11.89;100.00
20424;BME280;10371;49.042;8.002;2023-08-08T03:35:54;99960.50;;;11.83;100.00
20424;BME280;10371;49.042;8.002;2023-08-08T03:36:55;99963.00;;;11.85;100.00
20424;BME280;10371;49.042;8.002;2023-08-08T03:37:55;99958.88;;;11.82;100.00
20424;BME280;10371;49.042;8.002;2023-08-08T03:38:56;99952.00;;;11.81;100.00
20424;BME280;10371;49.042;8.002;2023-08-08T03:39:56;99954.03;;;11.78;100.00
20424;BME280;10371;49.042;8.002;2023-08-08T03:40:56;99957.47;;;11.78;100.00
20424;BME280;10371;49.042;8.002;2023-08-08T03:41:57;99944.81;;;11.74;100.00
20424;BME280;10371;49.042;8.002;2023-08-08T03:42:57;99945.75;;;11.73;100.00
20424;BME280;10371;49.042;8.002;2023-08-08T03:43:57;99954.53;;;11.72;100.00
20424;BME280;10371;49.042;8.002;2023-08-08T03:44:57;99948.34;;;11.73;100.00
20424;BME280;10371;49.042;8.002;2023-08-08T03:45:58;99948.13;;;11.76;100.00
20424;BME280;10371;49.042;8.002;2023-08-08T03:46:58;99948.94;;;11.76;100.00
20424;BME280;10371;49.042;8.002;2023-08-08T03:47:58;99947.16;;;11.77;100.00
20424;BME280;10371;49.042;8.002;2023-08-08T03:48:59;99949.88;;;11.75;100.00
20424;BME280;10371;49.042;8.002;2023-08-08T03:49:59;99956.88;;;11.75;100.00
20424;BME280;10371;49.042;8.002;2023-08-08T03:50:59;99954.44;;;11.73;100.00
20424;BME280;10371;49.042;8.002;2023-08-08T03:52:00;99950.03;;;11.74;100.00
20424;BME280;10371;49.042;8.002;2023-08-08T03:53:00;99951.66;;;11.75;100.00
20424;BME280;10371;49.042;8.002;2023-08-08T03:54:00;99953.47;;;11.74;100.00
20424;BME280;10371;49.042;8.002;2023-08-08T03:55:01;99958.78;;;11.73;100.00
20424;BME280;10371;49.042;8.002;2023-08-08T03:56:01;99955.75;;;11.68;100.00
20424;BME280;10371;49.042;8.002;2023-08-08T03:57:02;99960.97;;;11.68;100.00
20424;BME280;10371;49.042;8.002;2023-08-08T03:58:02;99965.94;;;11.71;100.00
20424;BME280;10371;49.042;8.002;2023-08-08T03:59:03;99963.44;;;11.69;100.00
20424;BME280;10371;49.042;8.002;2023-08-08T04:00:03;99961.66;;;11.70;100.00
20424;BME280;10371;49.042;8.002;2023-08-08T04:01:04;99967.72;;;11.70;100.00
20424;BME280;10371;49.042;8.002;2023-08-08T04:02:04;99962.50;;;11.70;100.00
20424;BME280;10371;49.042;8.002;2023-08-08T04:03:05;99961.81;;;11.68;100.00
20424;BME280;10371;49.042;8.002;2023-08-08T04:04:05;99967.72;;;11.70;100.00
20424;BME280;10371;49.042;8.002;2023-08-08T04:05:06;99964.53;;;11.67;100.00
20424;BME280;10371;49.042;8.002;2023-08-08T04:06:06;99966.19;;;11.68;100.00
20424;BME280;10371;49.042;8.002;2023-08-08T04:07:06;99963.84;;;11.65;100.00
20424;BME280;10371;49.042;8.002;2023-08-08T04:08:06;99958.47;;;11.66;100.00
20424;BME280;10371;49.042;8.002;2023-08-08T04:09:07;99964.53;;;11.67;100.00
20424;BME280;10371;49.042;8.002;2023-08-08T04:10:07;99959.31;;;11.67;100.00
20424;BME280;10371;49.042;8.002;2023-08-08T04:11:08;99962.72;;;11.67;100.00
20424;BME280;10371;49.042;8.002;2023-08-08T04:12:08;99966.19;;;11.68;100.00
20424;BME280;10371;49.042;8.002;2023-08-08T04:13:09;99960.97;;;11.68;100.00
20424;BME280;10371;49.042;8.002;2023-08-08T04:14:10;99962.88;;;11.66;100.00
20424;BME280;10371;49.042;8.002;2023-08-08T04:15:10;99962.06;;;11.65;100.00
20424;BME280;10371;49.042;8.002;2023-08-08T04:16:10;99967.28;;;11.65;100.00
20424;BME280;10371;49.042;8.002;2023-08-08T04:17:10;99963.69;;;11.66;100.00
20424;BME280;10371;49.042;8.002;2023-08-08T04:18:11;99965.50;;;11.66;100.00
20424;BME280;10371;49.042;8.002;2023-08-08T04:19:11;99963.84;;;11.65;100.00
20424;BME280;10371;49.042;8.002;2023-08-08T04:20:11;99973.56;;;11.62;100.00
20424;BME280;10371;49.042;8.002;2023-08-08T04:21:12;99966.69;;;11.61;100.00
20424;BME280;10371;49.042;8.002;2023-08-08T04:22:12;99966.81;;;11.60;100.00
20424;BME280;10371;49.042;8.002;2023-08-08T04:23:13;99966.69;;;11.61;100.00
20424;BME280;10371;49.042;8.002;2023-08-08T04:24:13;99970.25;;;11.60;100.00
20424;BME280;10371;49.042;8.002;2023-08-08T04:25:15;99974.66;;;11.60;100.00
20424;BME280;10371;49.042;8.002;2023-08-08T04:26:15;99972.16;;;11.58;100.00
20424;BME280;10371;49.042;8.002;2023-08-08T04:27:15;99966.13;;;11.58;100.00
20424;BME280;10371;49.042;8.002;2023-08-08T04:28:15;99973.13;;;11.57;100.00
20424;BME280;10371;49.042;8.002;2023-08-08T04:29:16;99974.75;;;11.58;100.00
20424;BME280;10371;49.042;8.002;2023-08-08T04:30:16;99973.22;;;11.56;100.00
20424;BME280;10371;49.042;8.002;2023-08-08T04:31:16;99978.34;;;11.57;100.00
20424;BME280;10371;49.042;8.002;2023-08-08T04:32:17;99973.13;;;11.57;100.00
20424;BME280;10371;49.042;8.002;2023-08-08T04:33:18;99972.16;;;11.58;100.00
20424;BME280;10371;49.042;8.002;2023-08-08T04:34:18;99971.91;;;11.61;100.00
20424;BME280;10371;49.042;8.002;2023-08-08T04:35:19;99979.91;;;11.70;100.00
20424;BME280;10371;49.042;8.002;2023-08-08T04:36:19;99978.44;;;11.88;100.00
20424;BME280;10371;49.042;8.002;2023-08-08T04:37:19;99973.50;;;11.95;100.00
20424;BME280;10371;49.042;8.002;2023-08-08T04:38:19;99969.44;;;12.02;100.00
20424;BME280;10371;49.042;8.002;2023-08-08T04:39:20;99970.97;;;12.04;100.00
20424;BME280;10371;49.042;8.002;2023-08-08T04:40:20;99973.44;;;12.06;100.00
20424;BME280;10371;49.042;8.002;2023-08-08T04:41:20;99974.03;;;12.10;100.00
20424;BME280;10371;49.042;8.002;2023-08-08T04:42:20;99968.38;;;12.14;100.00
20424;BME280;10371;49.042;8.002;2023-08-08T04:43:21;99970.34;;;12.22;100.00
20424;BME280;10371;49.042;8.002;2023-08-08T04:44:21;99972.59;;;12.26;100.00
20424;BME280;10371;49.042;8.002;2023-08-08T04:45:21;99971.78;;;12.26;100.00
20424;BME280;10371;49.042;8.002;2023-08-08T04:46:21;99969.16;;;12.26;100.00
20424;BME280;10371;49.042;8.002;2023-08-08T04:47:22;99974.78;;;12.31;100.00
20424;BME280;10371;49.042;8.002;2023-08-08T04:48:22;99969.56;;;12.31;100.00
20424;BME280;10371;49.042;8.002;2023-08-08T04:49:22;99978.25;;;12.32;100.00
20424;BME280;10371;49.042;8.002;2023-08-08T04:50:23;99972.63;;;12.36;100.00
20424;BME280;10371;49.042;8.002;2023-08-08T04:51:23;99969.63;;;12.41;100.00
20424;BME280;10371;49.042;8.002;2023-08-08T04:52:23;99968.53;;;12.43;100.00
20424;BME280;10371;49.042;8.002;2023-08-08T04:53:24;99972.94;;;12.52;100.00
20424;BME280;10371;49.042;8.002;2023-08-08T04:54:24;99973.25;;;12.59;100.00
20424;BME280;10371;49.042;8.002;2023-08-08T04:55:24;99972.84;;;12.64;100.00
20424;BME280;10371;49.042;8.002;2023-08-08T04:56:24;99981.28;;;12.77;100.00
20424;BME280;10371;49.042;8.002;2023-08-08T04:57:25;99971.53;;;12.79;100.00
20424;BME280;10371;49.042;8.002;2023-08-08T04:58:25;99981.69;;;12.82;100.00
20424;BME280;10371;49.042;8.002;2023-08-08T04:59:25;99984.03;;;12.85;100.00
20424;BME280;10371;49.042;8.002;2023-08-08T05:00:26;99987.91;;;12.91;100.00
20424;BME280;10371;49.042;8.002;2023-08-08T05:01:26;99985.72;;;12.96;100.00
20424;BME280;10371;49.042;8.002;2023-08-08T05:02:27;99982.41;;;13.04;100.00
20424;BME280;10371;49.042;8.002;2023-08-08T05:03:27;99981.19;;;13.08;100.00
20424;BME280;10371;49.042;8.002;2023-08-08T05:04:27;99980.91;;;13.11;100.00
20424;BME280;10371;49.042;8.002;2023-08-08T05:05:27;99984.66;;;13.18;100.00
20424;BME280;10371;49.042;8.002;2023-08-08T05:06:28;99982.44;;;13.23;100.00
20424;BME280;10371;49.042;8.002;2023-08-08T05:07:28;99982.56;;;13.22;100.00
20424;BME280;10371;49.042;8.002;2023-08-08T05:08:28;99988.34;;;13.25;100.00
20424;BME280;10371;49.042;8.002;2023-08-08T05:09:28;99982.22;;;13.26;100.00
20424;BME280;10371;49.042;8.002;2023-08-08T05:10:29;99986.31;;;13.29;100.00
20424;BME280;10371;49.042;8.002;2023-08-08T05:11:31;99984.41;;;13.31;100.00
20424;BME280;10371;49.042;8.002;2023-08-08T05:12:31;99986.88;;;13.32;100.00
20424;BME280;10371;49.042;8.002;2023-08-08T05:13:31;99993.22;;;13.30;100.00
20424;BME280;10371;49.042;8.002;2023-08-08T05:14:31;99982.75;;;13.30;100.00
20424;BME280;10371;49.042;8.002;2023-08-08T05:15:32;99986.72;;;13.34;100.00
20424;BME280;10371;49.042;8.002;2023-08-08T05:16:32;99991.56;;;13.38;100.00
20424;BME280;10371;49.042;8.002;2023-08-08T05:17:32;99989.50;;;13.42;100.00
20424;BME280;10371;49.042;8.002;2023-08-08T05:18:33;99989.09;;;13.47;100.00
20424;BME280;10371;49.042;8.002;2023-08-08T05:19:33;99994.84;;;13.50;100.00